createdAt,value
2023-01-18T00:01:19.259Z,72.57
2023-01-18T00:03:46.200Z,48.33
2023-01-18T00:06:13.114Z,55.63
2023-01-18T00:08:44.783Z,61.87
2023-01-18T00:11:15.763Z,42.60
2023-01-18T00:13:43.639Z,79.63
2023-01-18T00:16:20.868Z,68.50
2023-01-18T00:18:57.151Z,64.70
2023-01-18T00:21:25.150Z,85.50
2023-01-18T00:23:51.995Z,63.37
2023-01-18T00:26:19.246Z,60.00
2023-01-18T00:28:46.396Z,51.70
2023-01-18T00:31:20.638Z,54.20
2023-01-18T00:33:50.335Z,37.03
2023-01-18T00:36:18.197Z,33.87
2023-01-18T00:38:51.630Z,37.87
2023-01-18T00:41:19.368Z,32.60
2023-01-18T00:43:46.620Z,36.00
2023-01-18T00:46:23.491Z,32.27
2023-01-18T00:48:52.481Z,43.83
2023-01-18T00:51:23.028Z,36.63
2023-01-18T00:53:50.151Z,45.60
2023-01-18T00:56:21.623Z,36.33
2023-01-18T00:58:49.376Z,26.37
2023-01-18T01:01:16.757Z,26.73
2023-01-18T01:04:02.698Z,27.77
2023-01-18T01:06:46.737Z,27.00
2023-01-18T01:09:24.997Z,28.37
2023-01-18T01:12:12.482Z,27.87
2023-01-18T01:15:05.476Z,28.87
2023-01-18T01:17:55.172Z,25.73
2023-01-18T01:20:42.844Z,39.30
2023-01-18T01:23:38.399Z,30.40
2023-01-18T01:26:07.807Z,34.73
2023-01-18T01:28:36.337Z,39.83
2023-01-18T01:31:05.509Z,36.53
2023-01-18T01:33:33.925Z,35.27
2023-01-18T01:36:06.478Z,29.03
2023-01-18T01:38:33.803Z,31.87
2023-01-18T01:41:05.312Z,32.13
2023-01-18T01:43:46.076Z,29.23
2023-01-18T01:46:52.675Z,26.57
2023-01-18T01:49:28.390Z,29.53
2023-01-18T01:52:09.218Z,46.70
2023-01-18T01:55:05.178Z,26.90
2023-01-18T01:58:00.258Z,29.40
2023-01-18T02:00:27.350Z,26.43
2023-01-18T02:03:06.525Z,26.33
2023-01-18T02:05:42.171Z,23.80
2023-01-18T02:08:13.940Z,38.13
2023-01-18T02:10:40.709Z,22.27
2023-01-18T02:13:09.933Z,25.73
2023-01-18T02:16:11.583Z,29.60
2023-01-18T02:18:54.937Z,27.57
2023-01-18T02:21:40.438Z,34.70
2023-01-18T02:24:30.267Z,37.40
2023-01-18T02:27:34.918Z,31.43
2023-01-18T02:30:37.933Z,40.00
2023-01-18T02:33:30.913Z,22.00
2023-01-18T02:36:02.714Z,28.70
2023-01-18T02:38:45.326Z,22.80
2023-01-18T02:41:51.555Z,22.60
2023-01-18T02:44:55.619Z,25.13
2023-01-18T02:47:24.517Z,24.90
2023-01-18T02:49:51.241Z,22.00
2023-01-18T02:52:37.131Z,21.07
2023-01-18T02:55:06.161Z,28.80
2023-01-18T02:57:34.272Z,19.47
2023-01-18T03:00:23.321Z,15.80
2023-01-18T03:02:51.735Z,21.77
2023-01-18T03:05:19.968Z,29.03
2023-01-18T03:08:06.510Z,20.67
2023-01-18T03:10:44.975Z,32.30
2023-01-18T03:13:25.397Z,22.87
2023-01-18T03:15:57.910Z,39.47
2023-01-18T03:18:59.987Z,31.67
2023-01-18T03:21:51.411Z,29.73
2023-01-18T03:24:20.284Z,27.60
2023-01-18T03:26:53.420Z,21.67
2023-01-18T03:29:41.023Z,35.07
2023-01-18T03:32:34.894Z,61.97
2023-01-18T03:35:10.615Z,42.50
2023-01-18T03:37:41.958Z,108.83
2023-01-18T03:40:19.587Z,33.57
2023-01-18T03:43:00.340Z,48.97
2023-01-18T03:45:49.669Z,78.63
2023-01-18T03:48:16.905Z,41.63
2023-01-18T03:51:02.284Z,41.70
2023-01-18T03:53:32.755Z,66.17
2023-01-18T03:56:15.780Z,54.60
2023-01-18T03:58:45.331Z,81.47
2023-01-18T04:01:12.606Z,55.10
2023-01-18T04:03:39.387Z,34.13
2023-01-18T04:06:07.418Z,31.00
2023-01-18T04:08:34.229Z,37.83
2023-01-18T04:11:01.010Z,51.40
2023-01-18T04:13:27.761Z,55.97
2023-01-18T04:15:54.641Z,23.13
2023-01-18T04:18:21.482Z,30.50
2023-01-18T04:20:49.026Z,26.83
2023-01-18T04:23:15.900Z,39.53
2023-01-18T04:25:49.861Z,65.43
2023-01-18T04:28:25.041Z,47.10
2023-01-18T04:30:54.261Z,29.40
2023-01-18T04:33:22.881Z,25.43
2023-01-18T04:35:50.888Z,24.87
2023-01-18T04:38:17.644Z,25.53
2023-01-18T04:40:44.397Z,29.23
2023-01-18T04:43:11.249Z,33.37
2023-01-18T04:45:38.199Z,27.60
2023-01-18T04:48:05.379Z,26.43
2023-01-18T04:50:32.175Z,26.90
2023-01-18T04:52:59.429Z,22.77
2023-01-18T04:55:26.458Z,24.83
2023-01-18T04:57:57.169Z,31.67
2023-01-18T05:00:24.227Z,35.67
2023-01-18T05:02:51.214Z,31.00
2023-01-18T05:05:18.356Z,32.17
2023-01-18T05:07:45.095Z,31.97
2023-01-18T05:10:12.624Z,34.43
2023-01-18T05:12:39.411Z,32.97
2023-01-18T05:15:06.921Z,32.13
2023-01-18T05:17:34.635Z,36.97
2023-01-18T05:20:04.429Z,33.93
2023-01-18T05:22:32.949Z,32.60
2023-01-18T05:25:00.703Z,30.20
2023-01-18T05:27:27.473Z,33.83
2023-01-18T05:29:54.198Z,35.47
2023-01-18T05:32:20.920Z,38.87
2023-01-18T05:34:47.684Z,36.33
2023-01-18T05:37:14.428Z,54.37
2023-01-18T05:39:41.203Z,50.10
2023-01-18T05:42:08.463Z,29.17
2023-01-18T05:44:35.790Z,28.63
2023-01-18T05:47:02.505Z,24.90
2023-01-18T05:49:29.816Z,29.83
2023-01-18T05:51:56.645Z,33.60
2023-01-18T05:54:23.451Z,47.43
2023-01-18T05:56:50.235Z,49.70
2023-01-18T05:59:17.083Z,48.23
2023-01-18T06:01:43.845Z,45.13
2023-01-18T06:04:11.120Z,40.60
2023-01-18T06:06:37.943Z,36.03
2023-01-18T06:09:04.999Z,31.47
2023-01-18T06:11:31.901Z,24.97
2023-01-18T06:13:58.706Z,31.87
2023-01-18T06:16:25.529Z,28.43
2023-01-18T06:18:52.305Z,31.23
2023-01-18T06:21:19.055Z,24.53
2023-01-18T06:23:45.899Z,26.50
2023-01-18T06:26:12.746Z,27.27
2023-01-18T06:28:39.502Z,26.10
2023-01-18T06:31:08.386Z,26.23
2023-01-18T06:33:35.304Z,31.40
2023-01-18T06:36:02.545Z,28.20
2023-01-18T06:38:29.753Z,32.37
2023-01-18T06:40:57.184Z,32.43
2023-01-18T06:43:24.338Z,28.33
2023-01-18T06:45:56.119Z,27.90
2023-01-18T06:48:26.288Z,34.97
2023-01-18T06:50:56.655Z,23.00
2023-01-18T06:53:23.565Z,27.63
2023-01-18T06:55:59.503Z,32.10
2023-01-18T06:58:27.750Z,32.93
2023-01-18T07:01:00.153Z,36.23
2023-01-18T07:03:29.414Z,37.10
2023-01-18T07:06:01.882Z,34.83
2023-01-18T07:08:35.376Z,40.57
2023-01-18T07:11:08.526Z,38.60
2023-01-18T07:13:35.688Z,38.03
2023-01-18T07:16:02.603Z,38.63
2023-01-18T07:18:30.784Z,42.20
2023-01-18T07:21:07.138Z,43.70
2023-01-18T07:23:36.729Z,94.13
2023-01-18T07:26:16.036Z,46.70
2023-01-18T07:28:45.287Z,33.23
2023-01-18T07:31:12.227Z,30.87
2023-01-18T07:33:39.008Z,40.17
2023-01-18T07:36:07.393Z,40.53
2023-01-18T07:38:34.344Z,34.80
2023-01-18T07:41:08.260Z,39.90
2023-01-18T07:43:37.644Z,68.47
2023-01-18T07:46:05.968Z,50.80
2023-01-18T07:48:33.706Z,65.53
2023-01-18T07:51:06.802Z,42.17
2023-01-18T07:53:36.108Z,42.43
2023-01-18T07:56:10.889Z,44.47
2023-01-18T07:58:38.206Z,33.93
2023-01-18T08:01:18.594Z,28.70
2023-01-18T08:03:47.984Z,41.10
2023-01-18T08:06:18.844Z,35.33
2023-01-18T08:08:45.713Z,37.57
2023-01-18T08:11:12.849Z,43.37
2023-01-18T08:13:39.985Z,60.53
2023-01-18T08:16:11.598Z,79.80
2023-01-18T08:18:39.684Z,70.13
2023-01-18T08:21:11.093Z,46.73
2023-01-18T08:23:39.101Z,37.67
2023-01-18T08:26:07.367Z,35.80
2023-01-18T08:28:34.861Z,38.30
2023-01-18T08:31:19.795Z,29.77
2023-01-18T08:33:48.841Z,30.20
2023-01-18T08:36:22.419Z,31.13
2023-01-18T08:38:55.388Z,36.67
2023-01-18T08:41:28.522Z,33.37
2023-01-18T08:43:57.624Z,28.60
2023-01-18T08:46:25.733Z,32.43
2023-01-18T08:48:54.768Z,28.10
2023-01-18T08:51:23.062Z,29.50
2023-01-18T08:53:56.450Z,30.50
2023-01-18T08:56:23.277Z,30.20
2023-01-18T08:58:52.252Z,29.37
2023-01-18T09:01:19.438Z,35.97
2023-01-18T09:03:47.962Z,31.93
2023-01-18T09:06:16.627Z,33.77
2023-01-18T09:08:43.704Z,29.30
2023-01-18T09:11:10.832Z,36.70
2023-01-18T09:13:54.613Z,33.30
2023-01-18T09:16:26.881Z,32.80
2023-01-18T09:18:55.907Z,31.33
2023-01-18T09:21:23.064Z,31.93
2023-01-18T09:23:50.962Z,33.83
2023-01-18T09:26:20.807Z,35.47
2023-01-18T09:28:52.104Z,37.03
2023-01-18T09:31:21.821Z,35.33
2023-01-18T09:33:53.522Z,35.13
2023-01-18T09:36:23.797Z,37.33
2023-01-18T09:38:50.636Z,43.80
2023-01-18T09:41:34.803Z,36.73
2023-01-18T09:44:26.406Z,37.63
2023-01-18T09:47:01.093Z,34.40
2023-01-18T09:49:52.237Z,38.80
2023-01-18T09:52:50.115Z,41.40
2023-01-18T09:55:30.496Z,43.57
2023-01-18T09:58:11.299Z,43.27
2023-01-18T10:00:47.423Z,51.50
2023-01-18T10:03:31.270Z,54.40
2023-01-18T10:06:10.062Z,46.70
2023-01-18T10:08:52.119Z,49.07
2023-01-18T10:11:36.497Z,48.17
2023-01-18T10:14:22.741Z,44.87
2023-01-18T10:17:02.958Z,53.03
2023-01-18T10:19:32.289Z,42.63
2023-01-18T10:22:17.034Z,53.07
2023-01-18T10:25:06.427Z,54.60
2023-01-18T10:28:39.652Z,47.57
2023-01-18T10:31:32.951Z,44.70
2023-01-18T10:34:02.642Z,45.40
2023-01-18T10:36:41.688Z,39.30
2023-01-18T10:39:28.957Z,46.87
2023-01-18T10:42:08.551Z,44.67
2023-01-18T10:44:35.402Z,45.07
2023-01-18T10:47:02.860Z,43.60
2023-01-18T10:49:50.951Z,40.20
2023-01-18T10:52:28.307Z,50.40
2023-01-18T10:55:02.490Z,44.57
2023-01-18T10:57:35.772Z,44.57
2023-01-18T11:00:12.341Z,46.63
2023-01-18T11:02:40.388Z,45.40
2023-01-18T11:05:27.193Z,50.00
2023-01-18T11:08:25.165Z,48.17
2023-01-18T11:11:49.858Z,52.10
2023-01-18T11:14:31.949Z,53.17
2023-01-18T11:17:02.095Z,54.53
2023-01-18T11:19:29.562Z,83.03
2023-01-18T11:21:56.594Z,54.17
2023-01-18T11:24:30.889Z,46.67
2023-01-18T11:27:02.146Z,52.30
2023-01-18T11:29:36.401Z,44.27
2023-01-18T11:32:25.595Z,43.97
2023-01-18T11:34:56.101Z,45.70
2023-01-18T11:37:40.246Z,47.17
2023-01-18T11:40:19.668Z,45.20
2023-01-18T11:42:49.371Z,42.40
2023-01-18T11:45:45.462Z,44.93
2023-01-18T11:48:52.390Z,46.37
2023-01-18T11:51:52.228Z,50.30
2023-01-18T11:54:43.163Z,50.37
2023-01-18T11:57:12.764Z,44.27
2023-01-18T11:59:46.095Z,45.20
2023-01-18T12:02:56.221Z,45.30
2023-01-18T12:05:45.861Z,45.77
2023-01-18T12:09:08.009Z,47.07
2023-01-18T12:12:17.342Z,38.03
2023-01-18T12:15:06.546Z,32.47
2023-01-18T12:18:13.213Z,35.13
2023-01-18T12:21:15.110Z,32.53
2023-01-18T12:24:20.078Z,35.53
2023-01-18T12:27:05.333Z,34.10
2023-01-18T12:30:15.789Z,32.83
2023-01-18T12:33:14.360Z,34.63
2023-01-18T12:36:17.222Z,32.50
2023-01-18T12:38:54.248Z,34.50
2023-01-18T12:41:42.038Z,35.23
2023-01-18T12:44:28.800Z,35.17
2023-01-18T12:47:11.555Z,33.53
2023-01-18T12:49:49.698Z,35.43
2023-01-18T12:52:22.292Z,31.13
2023-01-18T12:54:55.901Z,35.50
2023-01-18T12:57:25.750Z,36.57
2023-01-18T13:00:15.366Z,32.17
2023-01-18T13:02:47.926Z,33.23
2023-01-18T13:05:35.383Z,32.17
2023-01-18T13:08:23.850Z,30.73
2023-01-18T13:10:52.387Z,32.83
2023-01-18T13:13:27.199Z,29.87
2023-01-18T13:16:09.870Z,32.80
2023-01-18T13:19:06.793Z,32.63
2023-01-18T13:22:04.883Z,32.90
2023-01-18T13:25:08.885Z,33.93
2023-01-18T13:27:37.796Z,32.63
2023-01-18T13:30:19.231Z,30.27
2023-01-18T13:32:48.164Z,29.83
2023-01-18T13:35:22.612Z,32.77
2023-01-18T13:37:57.943Z,28.80
2023-01-18T13:40:37.836Z,29.40
2023-01-18T13:43:25.122Z,26.37
2023-01-18T13:46:07.126Z,30.60
2023-01-18T13:49:37.204Z,27.03
2023-01-18T13:52:35.448Z,29.13
2023-01-18T13:55:31.102Z,28.57
2023-01-18T13:57:58.547Z,31.80
2023-01-18T14:00:27.364Z,34.47
2023-01-18T14:03:06.940Z,33.90
2023-01-18T14:05:44.280Z,29.63
2023-01-18T14:08:22.051Z,30.90
2023-01-18T14:10:53.764Z,35.50
2023-01-18T14:13:46.260Z,33.67
2023-01-18T14:16:26.888Z,36.07
2023-01-18T14:19:19.182Z,41.90
2023-01-18T14:22:19.978Z,39.10
2023-01-18T14:25:04.812Z,33.00
2023-01-18T14:27:43.136Z,37.23
2023-01-18T14:30:28.372Z,37.27
2023-01-18T14:33:02.785Z,38.67
2023-01-18T14:35:29.659Z,35.23
2023-01-18T14:38:18.819Z,37.53
2023-01-18T14:40:53.668Z,36.17
2023-01-18T14:43:28.013Z,35.70
2023-01-18T14:46:04.280Z,36.43
2023-01-18T14:48:36.790Z,36.00
2023-01-18T14:51:05.152Z,38.20
2023-01-18T14:53:40.817Z,39.63
2023-01-18T14:56:20.648Z,36.60
2023-01-18T14:58:59.304Z,34.67
2023-01-18T15:01:28.303Z,30.63
2023-01-18T15:03:58.079Z,36.33
2023-01-18T15:06:34.815Z,36.87
2023-01-18T15:09:05.733Z,35.17
2023-01-18T15:11:35.543Z,35.67
2023-01-18T15:14:07.532Z,41.70
2023-01-18T15:16:35.905Z,39.87
2023-01-18T15:19:03.085Z,41.97
2023-01-18T15:21:35.583Z,42.33
2023-01-18T15:24:19.967Z,42.00
2023-01-18T15:27:02.217Z,43.63
2023-01-18T15:29:36.075Z,38.90
2023-01-18T15:32:19.807Z,38.57
2023-01-18T15:34:50.634Z,35.60
2023-01-18T15:37:37.524Z,37.47
2023-01-18T15:40:27.639Z,34.77
2023-01-18T15:43:07.146Z,38.83
2023-01-18T15:45:47.936Z,35.67
2023-01-18T15:48:22.485Z,35.03
2023-01-18T15:50:53.731Z,37.73
2023-01-18T15:53:32.698Z,34.87
2023-01-18T15:56:07.205Z,36.23
2023-01-18T15:58:41.270Z,39.07
2023-01-18T16:01:21.484Z,39.57
2023-01-18T16:03:48.239Z,36.77
2023-01-18T16:06:37.092Z,33.83
2023-01-18T16:09:12.136Z,33.10
2023-01-18T16:11:54.476Z,36.73
2023-01-18T16:14:37.110Z,31.40
2023-01-18T16:17:17.954Z,36.90
2023-01-18T16:19:57.639Z,34.17
2023-01-18T16:22:35.948Z,34.43
2023-01-18T16:25:20.956Z,32.03
2023-01-18T16:27:54.114Z,33.10
2023-01-18T16:30:31.330Z,35.83
2023-01-18T16:33:13.946Z,30.60
2023-01-18T16:35:41.855Z,25.97
2023-01-18T16:38:14.572Z,34.00
2023-01-18T16:40:45.123Z,33.37
2023-01-18T16:43:22.602Z,28.00
2023-01-18T16:45:54.458Z,34.17
2023-01-18T16:48:24.786Z,30.17
2023-01-18T16:50:52.474Z,30.60
2023-01-18T16:53:19.622Z,35.87
2023-01-18T16:55:48.314Z,32.70
2023-01-18T16:58:18.251Z,30.97
2023-01-18T17:01:06.393Z,31.27
2023-01-18T17:03:35.956Z,33.10
2023-01-18T17:06:03.698Z,41.10
2023-01-18T17:08:32.250Z,26.27
2023-01-18T17:10:59.082Z,25.10
2023-01-18T17:13:25.984Z,34.70
2023-01-18T17:15:53.489Z,35.57
2023-01-18T17:18:25.967Z,35.80
2023-01-18T17:20:54.459Z,40.23
2023-01-18T17:23:22.227Z,48.67
2023-01-18T17:25:49.145Z,59.93
2023-01-18T17:28:19.048Z,53.03
2023-01-18T17:30:49.615Z,49.93
2023-01-18T17:33:23.634Z,29.33
2023-01-18T17:35:53.456Z,25.20
2023-01-18T17:38:27.033Z,29.53
2023-01-18T17:40:55.964Z,23.73
2023-01-18T17:43:33.393Z,19.83
2023-01-18T17:46:06.607Z,28.90
2023-01-18T17:48:33.963Z,22.90
2023-01-18T17:51:00.851Z,34.63
2023-01-18T17:53:27.947Z,30.07
2023-01-18T17:55:54.693Z,24.90
2023-01-18T17:58:21.513Z,23.20
2023-01-18T18:00:48.270Z,23.80
2023-01-18T18:03:15.181Z,21.10
2023-01-18T18:05:41.987Z,19.13
2023-01-18T18:08:09.488Z,20.43
2023-01-18T18:10:36.342Z,21.63
2023-01-18T18:13:03.571Z,24.47
2023-01-18T18:15:30.576Z,19.93
2023-01-18T18:17:57.479Z,17.93
2023-01-18T18:20:24.715Z,18.80
2023-01-18T18:22:51.504Z,19.33
2023-01-18T18:25:18.384Z,19.23
2023-01-18T18:27:46.871Z,18.20
2023-01-18T18:30:15.441Z,18.37
2023-01-18T18:32:42.394Z,21.97
2023-01-18T18:35:23.830Z,21.00
2023-01-18T18:37:53.848Z,18.77
2023-01-18T18:40:21.346Z,22.77
2023-01-18T18:43:00.624Z,23.17
2023-01-18T18:45:31.356Z,19.67
2023-01-18T18:47:58.719Z,25.23
2023-01-18T18:50:25.619Z,34.40
2023-01-18T18:52:52.403Z,27.60
2023-01-18T18:55:19.377Z,21.00
2023-01-18T18:57:46.186Z,28.53
2023-01-18T19:00:14.325Z,25.67
2023-01-18T19:02:41.140Z,33.73
2023-01-18T19:05:08.790Z,38.13
2023-01-18T19:07:35.864Z,46.13
2023-01-18T19:10:03.900Z,47.87
2023-01-18T19:12:31.938Z,40.33
2023-01-18T19:14:59.194Z,47.10
2023-01-18T19:17:30.753Z,38.97
2023-01-18T19:19:58.941Z,73.23
2023-01-18T19:22:26.301Z,27.60
2023-01-18T19:24:53.286Z,39.80
2023-01-18T19:27:21.318Z,67.37
2023-01-18T19:29:48.148Z,77.53
2023-01-18T19:32:15.490Z,61.67
2023-01-18T19:34:42.224Z,61.53
2023-01-18T19:37:09.001Z,58.87
2023-01-18T19:39:35.972Z,50.87
2023-01-18T19:42:02.847Z,56.40
2023-01-18T19:44:29.739Z,51.10
2023-01-18T19:46:57.131Z,49.63
2023-01-18T19:49:25.548Z,34.43
2023-01-18T19:51:54.695Z,42.63
2023-01-18T19:54:22.641Z,46.73
2023-01-18T19:56:49.519Z,39.13
2023-01-18T19:59:16.427Z,38.80
2023-01-18T20:01:44.791Z,34.70
2023-01-18T20:04:13.191Z,40.70
2023-01-18T20:06:43.182Z,47.30
2023-01-18T20:09:19.434Z,55.03
2023-01-18T20:11:48.928Z,50.80
2023-01-18T20:14:16.392Z,60.93
2023-01-18T20:16:45.682Z,29.53
2023-01-18T20:19:14.838Z,30.00
2023-01-18T20:21:41.657Z,27.83
2023-01-18T20:24:09.243Z,35.63
2023-01-18T20:26:39.604Z,53.90
2023-01-18T20:29:08.236Z,55.50
2023-01-18T20:31:36.913Z,27.90
2023-01-18T20:34:05.827Z,23.80
2023-01-18T20:36:36.649Z,38.67
2023-01-18T20:39:06.333Z,48.83
2023-01-18T20:41:33.173Z,26.43
2023-01-18T20:44:00.047Z,40.97
2023-01-18T20:46:27.114Z,41.80
2023-01-18T20:48:53.909Z,40.53
2023-01-18T20:51:20.772Z,47.80
2023-01-18T20:53:47.578Z,55.93
2023-01-18T20:56:28.421Z,50.10
2023-01-18T20:58:57.895Z,44.90
2023-01-18T21:01:31.364Z,49.70
2023-01-18T21:04:01.410Z,52.43
2023-01-18T21:06:29.197Z,44.83
2023-01-18T21:08:58.521Z,46.40
2023-01-18T21:11:26.778Z,49.37
2023-01-18T21:13:59.382Z,48.53
2023-01-18T21:16:27.560Z,49.00
2023-01-18T21:18:56.253Z,48.17
2023-01-18T21:21:24.159Z,27.63
2023-01-18T21:23:53.880Z,25.97
2023-01-18T21:26:20.795Z,18.10
2023-01-18T21:28:48.321Z,25.33
2023-01-18T21:31:15.212Z,31.07
2023-01-18T21:33:42.507Z,27.37
2023-01-18T21:36:15.059Z,21.17
2023-01-18T21:38:42.236Z,26.63
2023-01-18T21:41:29.108Z,44.13
2023-01-18T21:44:14.584Z,42.30
2023-01-18T21:46:49.427Z,17.33
2023-01-18T21:49:57.704Z,20.30
2023-01-18T21:52:40.500Z,16.40
2023-01-18T21:55:07.916Z,22.20
2023-01-18T21:57:36.225Z,19.03
2023-01-18T22:00:05.062Z,18.63
2023-01-18T22:02:33.779Z,18.20
2023-01-18T22:05:00.759Z,20.73
2023-01-18T22:07:30.220Z,15.20
2023-01-18T22:10:05.110Z,16.50
2023-01-18T22:12:34.808Z,19.30
2023-01-18T22:15:02.936Z,19.17
2023-01-18T22:17:30.099Z,15.93
2023-01-18T22:19:57.588Z,16.60
2023-01-18T22:22:24.682Z,13.53
2023-01-18T22:24:51.932Z,14.93
2023-01-18T22:27:18.915Z,13.67
2023-01-18T22:29:45.967Z,14.07
2023-01-18T22:32:13.359Z,17.63
2023-01-18T22:34:40.314Z,14.63
2023-01-18T22:37:07.470Z,16.37
2023-01-18T22:39:34.579Z,14.10
2023-01-18T22:42:01.331Z,13.37
2023-01-18T22:44:28.236Z,13.67
2023-01-18T22:46:55.070Z,15.03
2023-01-18T22:49:25.487Z,14.93
2023-01-18T22:51:52.258Z,12.13
2023-01-18T22:54:22.473Z,13.63
2023-01-18T22:56:49.221Z,13.37
2023-01-18T22:59:16.113Z,17.17
2023-01-18T23:01:43.136Z,14.87
2023-01-18T23:04:10.481Z,12.30
2023-01-18T23:06:46.728Z,14.13
2023-01-18T23:09:17.409Z,14.73
2023-01-18T23:11:45.606Z,16.10
2023-01-18T23:14:30.946Z,14.77
2023-01-18T23:17:16.528Z,14.67
2023-01-18T23:19:43.296Z,12.33
2023-01-18T23:22:11.084Z,15.67
2023-01-18T23:24:39.638Z,13.40
2023-01-18T23:27:10.040Z,19.63
2023-01-18T23:29:37.221Z,14.90
2023-01-18T23:32:04.875Z,12.93
2023-01-18T23:34:31.814Z,15.07
2023-01-18T23:36:58.595Z,13.87
2023-01-18T23:39:43.681Z,13.50
2023-01-18T23:42:29.100Z,13.90
2023-01-18T23:45:14.137Z,15.13
2023-01-18T23:48:00.131Z,13.87
2023-01-18T23:50:45.303Z,14.10
2023-01-18T23:53:32.246Z,16.20
2023-01-18T23:55:59.646Z,16.10
2023-01-18T23:58:26.902Z,16.10
